Time;durP1;ratioP1;P1;durP2;ratioP2;P2;SDS_P1;SDS_P2;PMS_P1;PMS_P2;Temp;Humidity;BMP_temperature;BMP_pressure;BME280_temperature;BME280_humidity;BME280_pressure;Samples;Min_cycle;Max_cycle;Signal;HPM_P1;HPM_P2
2023/06/02 01:01:02;;;;;;;17.60;7.20;;;;;;;10.05;100.00;92942.66;2585480;22;20023;-85
2023/06/02 01:02:04;;;;;;;12.77;7.43;;;;;;;10.09;100.00;92943.31;2570242;23;20461;-84
2023/06/02 01:03:13;;;;;;;12.07;7.78;;;;;;;10.04;100.00;92937.72;2581802;22;20462;-84
2023/06/02 01:04:22;;;;;;;12.25;7.35;;;;;;;9.94;100.00;92939.47;2581793;22;20035;-85
2023/06/02 01:05:30;;;;;;;11.63;7.63;;;;;;;9.92;100.00;92941.03;2572731;22;20013;-85
2023/06/02 01:06:36;;;;;;;12.48;7.95;;;;;;;9.88;100.00;92938.47;2594248;22;20504;-84
2023/06/02 01:07:51;;;;;;;12.95;7.47;;;;;;;9.89;100.00;92937.31;2570340;23;20686;-82
2023/06/02 01:09:07;;;;;;;12.30;7.97;;;;;;;9.91;100.00;92937.63;2587782;22;20000;-85
2023/06/02 01:10:18;;;;;;;14.20;8.15;;;;;;;9.92;100.00;92933.81;2594387;22;20608;-83
2023/06/02 01:11:28;;;;;;;18.80;8.23;;;;;;;9.94;100.00;92939.47;2593991;22;20000;-84
2023/06/02 01:12:35;;;;;;;13.63;6.72;;;;;;;9.85;100.00;92933.97;2571403;23;20028;-84
2023/06/02 01:13:43;;;;;;;14.75;8.15;;;;;;;9.88;100.00;92929.69;2572103;22;20087;-83
2023/06/02 01:14:52;;;;;;;16.77;8.70;;;;;;;9.85;100.00;92931.28;2583159;22;20008;-83
2023/06/02 01:16:03;;;;;;;13.55;8.43;;;;;;;9.80;100.00;92934.44;2583496;22;20000;-86
2023/06/02 01:17:14;;;;;;;15.20;8.15;;;;;;;9.83;100.00;92933.59;2571255;23;20787;-86
2023/06/02 01:18:25;;;;;;;16.63;8.27;;;;;;;9.80;100.00;92929.13;2571099;23;20009;-84
2023/06/02 01:19:31;;;;;;;13.50;7.95;;;;;;;9.78;100.00;92936.75;2561502;23;20417;-86
2023/06/02 01:20:57;;;;;;;12.95;8.35;;;;;;;9.76;100.00;92931.84;2558208;23;20008;-86
2023/06/02 01:22:05;;;;;;;12.93;7.70;;;;;;;9.76;100.00;92931.09;2590760;22;20033;-86
2023/06/02 01:23:49;;;;;;;23.33;8.20;;;;;;;9.72;100.00;92930.44;2593395;22;20011;-84
2023/06/02 01:25:00;;;;;;;12.77;8.70;;;;;;;9.71;100.00;92932.34;2562378;23;20016;-84
2023/06/02 01:26:11;;;;;;;12.23;8.85;;;;;;;9.65;100.00;92936.66;2568328;22;20112;-86
2023/06/02 01:27:20;;;;;;;13.93;8.82;;;;;;;9.77;100.00;92940.59;2571066;23;20079;-86
2023/06/02 01:28:29;;;;;;;13.93;8.18;;;;;;;9.73;100.00;92934.59;2560204;23;20005;-85
2023/06/02 01:29:39;;;;;;;14.13;8.15;;;;;;;9.68;100.00;92929.75;2560121;23;20005;-87
2023/06/02 01:30:43;;;;;;;;;;;;;;;9.78;100.00;92934.84;2571328;23;20039;-84
2023/06/02 01:32:00;;;;;;;14.40;8.23;;;;;;;9.59;100.00;92931.06;2569809;23;19924;-83
2023/06/02 01:35:42;;;;;;;14.52;8.20;;;;;;;9.69;100.00;92932.00;2554044;22;20013;-83
2023/06/02 01:36:54;;;;;;;13.95;8.23;;;;;;;9.74;100.00;92928.84;2568286;23;20000;-84
2023/06/02 01:37:59;;;;;;;16.40;8.43;;;;;;;9.84;100.00;92930.53;2560991;23;20067;-85
2023/06/02 01:39:02;;;;;;;14.65;8.75;;;;;;;9.76;100.00;92923.84;2558728;23;20008;-84
2023/06/02 01:40:06;;;;;;;18.40;8.38;;;;;;;9.68;100.00;92925.16;2570119;22;20000;-85
2023/06/02 01:41:07;;;;;;;12.65;8.70;;;;;;;9.63;100.00;92924.91;2569617;23;20392;-83
2023/06/02 01:42:11;;;;;;;17.83;8.88;;;;;;;9.57;100.00;92924.66;2556872;23;20055;-86
2023/06/02 01:43:14;;;;;;;16.40;9.38;;;;;;;9.52;100.00;92920.53;2582509;22;20426;-85
2023/06/02 01:44:18;;;;;;;14.65;8.65;;;;;;;9.49;100.00;92924.03;2581690;23;20011;-85
2023/06/02 01:45:30;;;;;;;14.75;8.90;;;;;;;9.38;100.00;92928.84;2570774;22;20443;-83
2023/06/02 01:47:45;;;;;;;17.95;8.88;;;;;;;9.35;100.00;92927.00;2594434;22;20004;-83
2023/06/02 01:48:46;;;;;;;15.23;8.40;;;;;;;9.36;100.00;92923.16;2594260;22;20094;-86
2023/06/02 01:49:49;;;;;;;16.65;9.13;;;;;;;9.45;100.00;92920.69;2569050;23;20007;-86
2023/06/02 01:50:56;;;;;;;18.58;9.10;;;;;;;9.43;100.00;92928.34;2569923;22;20031;-85
2023/06/02 01:52:19;;;;;;;14.52;8.43;;;;;;;9.48;100.00;92922.53;2570254;23;20562;-82
2023/06/02 01:53:29;;;;;;;20.33;8.90;;;;;;;9.40;100.00;92931.84;2565848;23;20015;-86
2023/06/02 01:54:36;;;;;;;;;;;;;;;9.51;100.00;92924.38;2571880;23;20015;-84
2023/06/02 01:55:47;;;;;;;15.10;8.20;;;;;;;9.45;100.00;92925.28;2571489;22;19908;-87
2023/06/02 01:56:56;;;;;;;22.05;8.90;;;;;;;9.46;100.00;92927.53;2570693;23;20004;-84
2023/06/02 01:58:07;;;;;;;15.90;8.98;;;;;;;9.42;100.00;92932.19;2560161;23;20103;-85
2023/06/02 01:59:17;;;;;;;18.52;8.70;;;;;;;9.40;100.00;92925.78;2573116;22;20000;-86
2023/06/02 02:00:31;;;;;;;18.10;8.60;;;;;;;9.38;100.00;92925.41;2570475;23;20463;-84
2023/06/02 02:01:42;;;;;;;15.73;8.68;;;;;;;9.30;100.00;92922.88;2571153;23;20004;-85
2023/06/02 02:02:53;;;;;;;16.48;8.95;;;;;;;9.51;100.00;92928.97;2560551;23;20009;-85
2023/06/02 02:04:05;;;;;;;27.40;9.18;;;;;;;9.42;100.00;92926.09;2560075;23;20388;-86
2023/06/02 02:05:19;;;;;;;15.65;7.95;;;;;;;9.42;100.00;92928.75;2573621;22;20004;-86
2023/06/02 02:06:34;;;;;;;15.43;8.70;;;;;;;9.37;100.00;92924.66;2571396;23;20058;-85
2023/06/02 02:07:46;;;;;;;18.63;8.75;;;;;;;9.29;100.00;92917.97;2562205;23;20047;-86
2023/06/02 02:09:03;;;;;;;24.52;9.02;;;;;;;9.33;100.00;92926.66;2560881;23;20004;-82
2023/06/02 02:10:16;;;;;;;24.17;9.07;;;;;;;9.35;100.00;92916.34;2584574;22;20360;-85
2023/06/02 02:11:27;;;;;;;19.33;8.68;;;;;;;9.38;100.00;92920.81;2583029;22;20015;-82
2023/06/02 02:12:36;;;;;;;14.95;8.25;;;;;;;9.36;100.00;92919.75;2594098;22;19999;-82
2023/06/02 02:13:46;;;;;;;17.17;9.10;;;;;;;9.31;100.00;92921.00;2570446;23;20396;-83
2023/06/02 02:15:00;;;;;;;14.85;8.75;;;;;;;9.28;100.00;92919.88;2572424;22;20009;-83
2023/06/02 02:16:10;;;;;;;16.77;8.68;;;;;;;9.30;100.00;92922.13;2571811;23;20005;-85
2023/06/02 02:17:24;;;;;;;;;;;;;;;9.33;100.00;92918.66;2560467;23;20013;-83
2023/06/02 02:18:34;;;;;;;15.07;8.50;;;;;;;9.31;100.00;92921.75;2561341;23;20243;-82
2023/06/02 02:46:55;;;;;;;14.13;8.40;;;;;;;9.15;100.00;92929.66;2561369;22;20017;-84
2023/06/02 02:48:07;;;;;;;15.70;8.55;;;;;;;9.14;100.00;92925.50;2547624;23;20393;-88
2023/06/02 02:49:20;;;;;;;13.65;8.38;;;;;;;8.99;100.00;92927.69;2527830;23;20025;-86
2023/06/02 02:50:30;;;;;;;16.05;9.07;;;;;;;8.82;100.00;92928.75;2540077;23;20029;-87
2023/06/02 02:51:42;;;;;;;14.77;8.60;;;;;;;8.82;100.00;92924.19;2537539;23;20006;-85
2023/06/02 02:52:51;;;;;;;16.33;8.95;;;;;;;8.86;100.00;92931.34;2540157;23;20110;-85
2023/06/02 02:54:02;;;;;;;17.40;9.40;;;;;;;8.86;100.00;92928.69;2536895;23;20310;-87
2023/06/02 02:55:12;;;;;;;16.20;9.07;;;;;;;8.75;100.00;92928.91;2547619;23;20009;-84
2023/06/02 02:56:22;;;;;;;18.23;9.35;;;;;;;8.79;100.00;92921.59;2527213;23;20010;-85
2023/06/02 02:57:32;;;;;;;16.25;9.32;;;;;;;8.83;100.00;92924.94;2537360;23;20001;-84
2023/06/02 02:58:42;;;;;;;19.52;8.45;;;;;;;8.80;100.00;92925.75;2526413;23;20002;-88
2023/06/02 02:59:52;;;;;;;13.80;8.27;;;;;;;8.72;100.00;92927.03;2526864;23;20010;-85
2023/06/02 03:01:04;;;;;;;18.40;8.60;;;;;;;8.79;100.00;92925.00;2526697;23;20009;-85
2023/06/02 03:02:15;;;;;;;15.68;8.35;;;;;;;8.66;100.00;92926.03;2527612;23;20006;-85
2023/06/02 03:03:26;;;;;;;15.98;8.25;;;;;;;8.72;100.00;92924.38;2537471;23;20948;-86
2023/06/02 03:04:41;;;;;;;16.75;9.10;;;;;;;8.71;100.00;92923.63;2527739;23;20102;-85
2023/06/02 03:05:54;;;;;;;17.52;8.90;;;;;;;8.73;100.00;92926.63;2540834;23;20433;-84
2023/06/02 03:07:05;;;;;;;18.73;8.95;;;;;;;8.72;100.00;92924.38;2549956;23;20415;-86
2023/06/02 03:08:15;;;;;;;17.55;8.30;;;;;;;8.66;100.00;92921.44;2537298;23;20016;-85
2023/06/02 03:09:25;;;;;;;16.30;8.85;;;;;;;8.67;100.00;92927.53;2527424;23;20006;-84
2023/06/02 03:10:42;;;;;;;18.83;8.82;;;;;;;8.70;100.00;92932.03;2535626;23;20009;-85
2023/06/02 03:11:54;;;;;;;17.70;8.48;;;;;;;8.67;100.00;92922.94;2541574;23;20405;-84
2023/06/02 03:13:02;;;;;;;15.77;8.35;;;;;;;8.60;100.00;92924.97;2537508;23;20068;-83
2023/06/02 03:14:12;;;;;;;14.57;8.15;;;;;;;8.66;100.00;92931.34;2536591;23;20048;-86
2023/06/02 03:15:22;;;;;;;17.13;9.20;;;;;;;8.60;100.00;92927.63;2536417;23;20005;-85
2023/06/02 03:16:34;;;;;;;14.15;8.07;;;;;;;8.61;100.00;92931.81;2526303;23;20346;-84
2023/06/02 03:17:45;;;;;;;15.57;8.50;;;;;;;8.71;100.00;92931.63;2539455;23;20101;-84
2023/06/02 03:18:55;;;;;;;12.90;8.38;;;;;;;8.69;100.00;92922.53;2536932;23;20096;-85
2023/06/02 03:20:08;;;;;;;16.63;9.13;;;;;;;8.69;100.00;92919.84;2526659;23;20064;-84
2023/06/02 03:21:18;;;;;;;16.15;8.85;;;;;;;8.69;100.00;92919.84;2528208;23;20123;-85
2023/06/02 03:22:29;;;;;;;12.57;8.00;;;;;;;8.68;100.00;92927.09;2527255;23;20072;-85
2023/06/02 03:23:40;;;;;;;14.60;8.27;;;;;;;8.58;100.00;92917.38;2526921;23;20002;-86
2023/06/02 03:24:50;;;;;;;14.13;8.90;;;;;;;8.58;100.00;92925.38;2539545;23;20029;-84
2023/06/02 03:25:57;;;;;;;;;;;;;;;8.60;100.00;92924.97;2537918;23;20116;-84
2023/06/02 03:27:13;;;;;;;14.93;7.95;;;;;;;8.85;100.00;92929.84;2549790;23;19935;-85
2023/06/02 03:28:25;;;;;;;15.65;8.43;;;;;;;8.69;100.00;92925.19;2547321;23;20017;-86
2023/06/02 03:29:35;;;;;;;14.02;7.97;;;;;;;8.63;100.00;92921.50;2539687;23;20065;-85
2023/06/02 03:30:48;;;;;;;13.85;8.48;;;;;;;8.57;100.00;92926.56;2537040;23;20037;-85
2023/06/02 03:32:18;;;;;;;13.40;8.05;;;;;;;8.67;100.00;92922.94;2527320;23;20025;-85
2023/06/02 03:33:27;;;;;;;15.05;9.10;;;;;;;8.42;100.00;92926.03;2532301;23;20017;-88
2023/06/02 03:34:40;;;;;;;14.15;8.20;;;;;;;8.46;100.00;92920.63;2536054;23;20065;-85
2023/06/02 03:35:50;;;;;;;16.40;9.07;;;;;;;8.46;100.00;92926.72;2545164;23;20016;-85
2023/06/02 03:37:02;;;;;;;16.10;9.10;;;;;;;8.43;100.00;92930.22;2524171;23;20006;-83
2023/06/02 03:38:11;;;;;;;13.98;8.15;;;;;;;8.40;100.00;92927.59;2525047;23;20085;-83
2023/06/02 03:39:21;;;;;;;20.52;9.50;;;;;;;8.38;100.00;92930.66;2534423;23;20016;-86
2023/06/02 03:40:31;;;;;;;16.23;8.68;;;;;;;8.44;100.00;92925.63;2535777;23;20084;-84
2023/06/02 03:41:41;;;;;;;15.20;8.57;;;;;;;8.45;100.00;92927.13;2534229;23;20042;-85
2023/06/02 03:42:51;;;;;;;15.60;8.70;;;;;;;8.38;100.00;92930.66;2524507;23;20530;-86
2023/06/02 03:44:02;;;;;;;17.77;8.63;;;;;;;8.44;100.00;92929.03;2536385;23;20132;-86
2023/06/02 03:45:12;;;;;;;14.52;9.25;;;;;;;8.45;100.00;92929.78;2546480;23;20384;-84
2023/06/02 03:46:25;;;;;;;18.60;8.40;;;;;;;8.42;100.00;92928.69;2544554;23;20048;-85
2023/06/02 03:47:34;;;;;;;13.43;8.52;;;;;;;8.39;100.00;92934.84;2534960;23;20101;-85
2023/06/02 03:48:44;;;;;;;13.98;8.40;;;;;;;8.30;100.00;92931.91;2523309;23;20089;-85
2023/06/02 03:49:57;;;;;;;16.52;8.45;;;;;;;8.37;100.00;92926.50;2536366;23;20413;-84
2023/06/02 03:51:07;;;;;;;14.05;8.60;;;;;;;8.42;100.00;92927.94;2534572;23;20389;-86
2023/06/02 03:52:17;;;;;;;19.27;8.85;;;;;;;8.49;100.00;92927.81;2524064;23;20429;-86
2023/06/02 03:53:24;;;;;;;;;;;;;;;8.44;100.00;92925.63;2524873;23;20117;-83
2023/06/02 03:54:34;;;;;;;16.08;8.27;;;;;;;8.45;100.00;92933.22;2535124;23;19905;-84
2023/06/02 03:55:44;;;;;;;15.40;8.65;;;;;;;8.46;100.00;92924.06;2534161;23;20140;-87
2023/06/02 03:56:54;;;;;;;17.85;8.43;;;;;;;8.43;100.00;92927.53;2524013;23;20026;-85
2023/06/02 03:58:07;;;;;;;16.85;8.30;;;;;;;8.41;100.00;92927.19;2524255;23;20377;-83
2023/06/02 03:59:17;;;;;;;13.98;8.57;;;;;;;8.56;100.00;92922.38;2547405;23;20029;-83
2023/06/02 04:00:25;;;;;;;16.02;8.57;;;;;;;8.40;100.00;92933.69;2533801;23;20057;-82
2023/06/02 04:01:39;;;;;;;17.33;8.82;;;;;;;8.43;100.00;92938.19;2535687;23;20006;-84
2023/06/02 04:02:49;;;;;;;14.93;8.88;;;;;;;8.45;100.00;92940.44;2535448;23;20096;-87
2023/06/02 04:04:02;;;;;;;16.55;9.15;;;;;;;8.44;100.00;92941.63;2534033;23;20038;-87
2023/06/02 04:05:12;;;;;;;15.10;7.82;;;;;;;8.32;100.00;92938.31;2534726;23;20033;-86
2023/06/02 04:06:21;;;;;;;15.13;8.05;;;;;;;8.41;100.00;92935.19;2524020;23;20052;-84
2023/06/02 04:07:33;;;;;;;15.05;8.82;;;;;;;8.53;100.00;92942.59;2524593;23;19999;-86
2023/06/02 04:08:42;;;;;;;13.30;8.63;;;;;;;8.54;100.00;92938.00;2524243;23;20002;-86
2023/06/02 04:09:52;;;;;;;18.50;9.27;;;;;;;8.59;100.00;92937.53;2548183;23;20006;-86
2023/06/02 04:11:04;;;;;;;21.88;9.35;;;;;;;8.51;100.00;92936.16;2544435;23;20365;-85
2023/06/02 04:12:14;;;;;;;13.57;8.23;;;;;;;8.52;100.00;92941.09;2536775;23;20006;-88
2023/06/02 04:13:21;;;;;;;;;;;;;;;8.55;100.00;92939.50;2534837;23;20009;-83
2023/06/02 04:14:36;;;;;;;20.08;8.52;;;;;;;8.69;100.00;92939.28;2546185;23;19928;-87
2023/06/02 04:15:47;;;;;;;16.58;8.85;;;;;;;8.73;100.00;92942.63;2533770;23;20006;-84
2023/06/02 04:16:57;;;;;;;15.73;8.68;;;;;;;8.72;100.00;92943.78;2519508;23;20014;-82
2023/06/02 04:18:06;;;;;;;17.23;9.52;;;;;;;8.73;100.00;92939.19;2520395;23;20010;-83
2023/06/02 04:19:15;;;;;;;20.77;8.73;;;;;;;8.73;100.00;92949.84;2533471;23;20029;-83
2023/06/02 04:20:24;;;;;;;17.63;8.50;;;;;;;8.69;100.00;92946.50;2543653;23;20704;-87
2023/06/02 04:21:35;;;;;;;17.85;9.40;;;;;;;8.65;100.00;92943.13;2528765;23;20009;-82
2023/06/02 04:22:48;;;;;;;19.83;8.73;;;;;;;8.68;100.00;92945.75;2521792;23;20028;-86
2023/06/02 04:23:56;;;;;;;18.23;8.60;;;;;;;8.74;100.00;92940.72;2535772;23;20020;-85
2023/06/02 04:25:07;;;;;;;18.27;9.10;;;;;;;8.77;100.00;92945.22;2532756;23;20388;-84
2023/06/02 04:26:16;;;;;;;14.73;8.65;;;;;;;8.82;100.00;92942.09;2533025;23;20008;-84
2023/06/02 04:27:29;;;;;;;14.75;8.93;;;;;;;8.85;100.00;92946.59;2544891;23;20028;-84
2023/06/02 04:28:41;;;;;;;16.50;8.88;;;;;;;8.92;100.00;92948.41;2541931;23;20095;-85
2023/06/02 04:29:50;;;;;;;18.60;8.98;;;;;;;8.91;100.00;92949.53;2522671;23;20053;-85
2023/06/02 04:31:01;;;;;;;17.40;8.93;;;;;;;8.96;100.00;92949.84;2521645;23;20402;-84
2023/06/02 04:32:12;;;;;;;17.80;8.80;;;;;;;9.03;100.00;92946.28;2522971;23;20331;-84
2023/06/02 04:33:21;;;;;;;16.40;9.52;;;;;;;9.12;100.00;92945.72;2522615;23;20006;-86
2023/06/02 04:34:39;;;;;;;16.02;8.88;;;;;;;9.23;100.00;92940.97;2542981;23;20048;-86
2023/06/02 04:35:52;;;;;;;14.07;8.93;;;;;;;9.32;100.00;92938.50;2525663;23;20002;-84
2023/06/02 04:36:59;;;;;;;17.23;9.63;;;;;;;9.37;100.00;92938.00;2523415;23;20014;-85
2023/06/02 04:38:09;;;;;;;15.57;8.77;;;;;;;9.36;100.00;92946.44;2521856;23;20519;-86
2023/06/02 04:39:21;;;;;;;16.85;9.18;;;;;;;9.40;100.00;92950.53;2523078;23;20078;-86
2023/06/02 04:40:31;;;;;;;19.85;10.13;;;;;;;9.45;100.00;92947.38;2545042;23;20485;-84
2023/06/02 04:41:41;;;;;;;19.98;9.00;;;;;;;9.45;100.00;92943.97;2543330;23;20152;-84
2023/06/02 04:42:50;;;;;;;17.50;9.27;;;;;;;9.47;100.00;92938.94;2523036;23;20003;-87
2023/06/02 04:44:00;;;;;;;20.70;9.05;;;;;;;9.51;100.00;92943.03;2522084;23;20446;-86
2023/06/02 04:45:25;;;;;;;20.02;9.77;;;;;;;9.57;100.00;92938.75;2522339;23;20014;-85
2023/06/02 04:46:30;;;;;;;22.63;9.18;;;;;;;9.55;100.00;92942.97;2528119;23;20025;-83
2023/06/02 04:47:31;;;;;;;19.27;9.65;;;;;;;9.65;100.00;92942.00;2532244;23;20617;-84
2023/06/02 04:48:32;;;;;;;20.27;9.55;;;;;;;9.71;100.00;92948.38;2519779;23;20445;-86
2023/06/02 04:49:33;;;;;;;19.58;9.05;;;;;;;9.76;100.00;92945.19;2519562;23;20006;-83
2023/06/02 04:50:36;;;;;;;17.73;9.38;;;;;;;9.76;100.00;92945.19;2531342;23;20009;-85
2023/06/02 04:51:38;;;;;;;19.38;9.88;;;;;;;9.79;100.00;92949.72;2531284;23;20010;-85
2023/06/02 04:52:42;;;;;;;21.98;9.88;;;;;;;9.85;100.00;92944.63;2519186;23;20014;-85
2023/06/02 04:53:47;;;;;;;18.95;9.60;;;;;;;9.94;100.00;92946.72;2533681;23;20406;-85
2023/06/02 04:54:49;;;;;;;20.58;9.48;;;;;;;10.00;100.00;92951.16;2532504;23;20002;-86
2023/06/02 04:55:51;;;;;;;17.45;9.68;;;;;;;10.11;100.00;92947.50;2531843;23;20126;-85
2023/06/02 04:56:54;;;;;;;15.57;8.90;;;;;;;10.16;100.00;92945.09;2543268;23;20029;-83
2023/06/02 04:57:56;;;;;;;17.10;9.43;;;;;;;10.26;100.00;92952.13;2520019;23;20089;-84
2023/06/02 04:58:57;;;;;;;25.58;9.30;;;;;;;10.34;100.00;92955.38;2519828;23;20421;-85
2023/06/02 04:59:58;;;;;;;20.05;10.15;;;;;;;10.46;100.00;92954.72;2531501;23;20009;-84
2023/06/02 05:01:00;;;;;;;21.63;8.95;;;;;;;10.58;100.00;92954.03;2531071;23;20041;-85
2023/06/02 05:02:02;;;;;;;19.17;9.38;;;;;;;10.77;100.00;92946.34;2519816;23;20018;-83
2023/06/02 05:03:03;;;;;;;18.60;9.13;;;;;;;10.79;100.00;92949.31;2531568;23;20002;-83
2023/06/02 05:04:05;;;;;;;16.08;8.63;;;;;;;10.81;100.00;92947.75;2531175;23;20029;-85
2023/06/02 05:05:07;;;;;;;20.25;9.52;;;;;;;10.84;100.00;92949.59;2531424;23;20006;-86
2023/06/02 05:06:09;;;;;;;20.83;9.45;;;;;;;10.92;100.00;92949.38;2543541;23;20818;-85
2023/06/02 05:07:10;;;;;;;18.17;9.25;;;;;;;10.96;100.00;92955.41;2531323;23;20326;-85
2023/06/02 05:08:11;;;;;;;17.80;9.23;;;;;;;10.96;100.00;92956.16;2519098;23;20427;-87
2023/06/02 05:09:13;;;;;;;17.63;9.07;;;;;;;10.94;100.00;92950.47;2531494;23;20085;-84
2023/06/02 05:10:15;;;;;;;16.67;9.18;;;;;;;10.96;100.00;92952.72;2531640;23;20803;-84
2023/06/02 05:11:16;;;;;;;17.70;8.57;;;;;;;10.97;100.00;92957.63;2531307;23;20081;-83
2023/06/02 05:12:18;;;;;;;20.35;9.80;;;;;;;11.00;100.00;92948.78;2531411;23;20016;-85
2023/06/02 05:13:19;;;;;;;21.23;9.48;;;;;;;11.03;100.00;92949.88;2519512;23;20326;-86
2023/06/02 05:14:20;;;;;;;19.75;9.52;;;;;;;11.09;100.00;92950.84;2519276;23;20002;-86
2023/06/02 05:15:21;;;;;;;20.15;9.35;;;;;;;11.10;100.00;92958.44;2519566;23;20033;-84
2023/06/02 05:16:24;;;;;;;21.77;9.40;;;;;;;11.14;100.00;92955.69;2530165;23;20005;-83
2023/06/02 05:17:28;;;;;;;16.85;9.60;;;;;;;11.16;100.00;92949.94;2529732;23;20072;-84
2023/06/02 05:18:29;;;;;;;19.65;9.63;;;;;;;11.17;100.00;92952.16;2542227;23;20012;-85
2023/06/02 05:19:30;;;;;;;16.23;9.00;;;;;;;11.19;100.00;92949.81;2530724;23;20051;-85
2023/06/02 05:20:31;;;;;;;21.92;9.38;;;;;;;11.33;100.00;92951.38;2531233;23;20002;-86
2023/06/02 05:21:32;;;;;;;20.35;9.68;;;;;;;11.28;100.00;92946.50;2532215;23;20006;-87
2023/06/02 05:22:33;;;;;;;20.80;8.95;;;;;;;11.29;100.00;92950.72;2544140;23;20542;-84
2023/06/02 05:23:36;;;;;;;16.85;9.18;;;;;;;11.29;100.00;92945.38;2531001;23;20512;-84
2023/06/02 05:24:38;;;;;;;20.02;9.73;;;;;;;11.37;100.00;92946.69;2519569;23;20002;-85
2023/06/02 05:25:41;;;;;;;20.50;9.07;;;;;;;11.37;100.00;92951.25;2519549;23;20456;-85
2023/06/02 05:26:43;;;;;;;22.00;9.77;;;;;;;11.41;100.00;92947.31;2531011;23;20337;-83
2023/06/02 05:27:46;;;;;;;17.90;9.32;;;;;;;11.43;100.00;92954.94;2518949;23;20773;-84
2023/06/02 05:28:53;;;;;;;17.50;9.82;;;;;;;11.40;100.00;92953.09;2531695;23;20006;-83
2023/06/02 05:29:54;;;;;;;16.67;8.80;;;;;;;11.39;100.00;92960.38;2554739;23;20009;-83
2023/06/02 05:30:55;;;;;;;22.98;11.00;;;;;;;11.41;100.00;92957.25;2554765;23;20467;-82
2023/06/02 05:31:59;;;;;;;16.88;9.30;;;;;;;11.41;100.00;92954.59;2528194;23;20018;-81
2023/06/02 05:33:02;;;;;;;19.70;10.02;;;;;;;11.43;100.00;92955.66;2529233;23;20006;-83
2023/06/02 05:34:03;;;;;;;17.95;9.75;;;;;;;11.43;100.00;92952.25;2529319;23;20009;-82
2023/06/02 05:35:07;;;;;;;22.10;9.88;;;;;;;11.48;100.00;92965.09;2529214;23;20013;-86
2023/06/02 05:36:08;;;;;;;15.75;8.77;;;;;;;11.57;100.00;92954.53;2553429;23;20036;-82
2023/06/02 05:37:12;;;;;;;20.38;9.80;;;;;;;11.77;100.00;92954.34;2528643;23;20509;-83
2023/06/02 05:38:17;;;;;;;23.23;9.48;;;;;;;11.76;100.00;92955.50;2531242;23;20014;-85
2023/06/02 05:39:20;;;;;;;19.95;9.27;;;;;;;11.70;100.00;92957.22;2520543;23;20033;-83
2023/06/02 05:40:21;;;;;;;16.35;9.35;;;;;;;11.79;100.00;92954.66;2530347;23;20006;-82
2023/06/02 05:41:24;;;;;;;16.52;9.30;;;;;;;11.77;100.00;92949.75;2530193;23;20025;-83
2023/06/02 05:42:25;;;;;;;27.25;9.30;;;;;;;11.75;100.00;92948.66;2517870;23;20045;-81
2023/06/02 05:43:27;;;;;;;18.58;9.50;;;;;;;11.77;100.00;92951.69;2529130;23;20010;-82
2023/06/02 05:44:28;;;;;;;17.30;8.90;;;;;;;11.89;100.00;92953.63;2530357;23;20084;-81
2023/06/02 05:45:29;;;;;;;18.30;9.45;;;;;;;11.90;100.00;92951.72;2542127;23;20143;-83
2023/06/02 05:46:30;;;;;;;19.50;9.15;;;;;;;11.86;100.00;92956.44;2518297;23;20152;-87
2023/06/02 05:47:32;;;;;;;18.02;9.75;;;;;;;11.91;100.00;92947.84;2518863;23;20132;-83
2023/06/02 05:48:33;;;;;;;21.90;9.82;;;;;;;11.96;100.00;92950.75;2519205;23;20006;-83
2023/06/02 05:49:35;;;;;;;19.15;9.35;;;;;;;11.96;100.00;92950.75;2529662;23;20370;-83
2023/06/02 05:50:37;;;;;;;16.10;9.05;;;;;;;11.92;100.00;92947.41;2517856;23;20725;-83
2023/06/02 05:51:39;;;;;;;18.60;8.95;;;;;;;11.95;100.00;92956.53;2531045;23;20002;-83
2023/06/02 05:52:41;;;;;;;18.15;9.30;;;;;;;12.03;100.00;92947.13;2530077;23;20036;-83
2023/06/02 05:53:44;;;;;;;19.52;9.52;;;;;;;12.15;100.00;92957.06;2518399;23;20161;-83
2023/06/02 05:54:46;;;;;;;18.38;9.38;;;;;;;12.16;100.00;92955.13;2518776;23;20018;-83
2023/06/02 05:55:47;;;;;;;21.83;9.27;;;;;;;12.17;100.00;92949.34;2517060;23;20362;-84
2023/06/02 05:56:48;;;;;;;15.60;9.68;;;;;;;12.20;100.00;92953.09;2530207;23;20013;-85
2023/06/02 05:57:51;;;;;;;17.42;9.30;;;;;;;12.14;100.00;92950.22;2541766;23;20472;-83
2023/06/02 05:58:52;;;;;;;18.48;9.48;;;;;;;12.15;100.00;92948.28;2529722;23;20006;-82
2023/06/02 05:59:53;;;;;;;18.75;9.13;;;;;;;12.18;100.00;92948.16;2529162;23;20002;-84
2023/06/02 06:00:55;;;;;;;17.38;9.43;;;;;;;12.22;100.00;92959.53;2528709;23;20006;-87
2023/06/02 06:01:57;;;;;;;20.15;9.10;;;;;;;12.23;100.00;92949.56;2518413;23;20006;-85
2023/06/02 06:03:00;;;;;;;20.75;8.95;;;;;;;12.27;100.00;92952.88;2530958;23;20539;-82
2023/06/02 06:04:03;;;;;;;20.50;9.20;;;;;;;12.24;100.00;92951.81;2540459;23;20021;-85
2023/06/02 06:05:05;;;;;;;19.15;9.77;;;;;;;12.33;100.00;92957.25;2530679;23;20523;-82
2023/06/02 06:06:06;;;;;;;18.23;8.90;;;;;;;12.38;100.00;92956.00;2541334;23;20091;-83
2023/06/02 06:07:08;;;;;;;18.88;9.90;;;;;;;12.38;100.00;92957.91;2541827;23;20013;-83
2023/06/02 06:08:10;;;;;;;17.80;9.73;;;;;;;12.37;100.00;92945.69;2554339;23;20020;-86
2023/06/02 06:09:11;;;;;;;16.42;9.32;;;;;;;12.38;100.00;92945.28;2541841;23;20063;-86
2023/06/02 06:10:12;;;;;;;17.10;10.05;;;;;;;12.38;100.00;92947.19;2530559;23;20010;-82
2023/06/02 06:11:15;;;;;;;22.05;9.68;;;;;;;12.43;100.00;92946.66;2530907;23;20437;-82
2023/06/02 06:12:16;;;;;;;18.48;9.35;;;;;;;12.43;100.00;92941.31;2543047;23;20006;-82
2023/06/02 06:13:18;;;;;;;16.75;9.30;;;;;;;12.42;100.00;92945.88;2530556;23;20001;-84
2023/06/02 06:14:19;;;;;;;17.23;9.10;;;;;;;12.44;100.00;92946.22;2517262;23;20036;-84
2023/06/02 06:15:20;;;;;;;19.73;8.70;;;;;;;12.44;100.00;92946.22;2542166;23;20376;-82
2023/06/02 06:16:21;;;;;;;18.27;9.25;;;;;;;12.52;100.00;92949.44;2541683;23;20048;-85
2023/06/02 06:17:22;;;;;;;16.98;9.30;;;;;;;12.56;100.00;92945.47;2529683;23;20010;-83
2023/06/02 06:18:23;;;;;;;16.58;9.27;;;;;;;12.62;100.00;92936.88;2542156;23;20093;-82
2023/06/02 06:19:24;;;;;;;17.35;8.40;;;;;;;12.69;100.00;92939.31;2529977;23;20105;-83
2023/06/02 06:20:28;;;;;;;17.83;8.75;;;;;;;12.72;100.00;92946.47;2515472;23;20010;-83
2023/06/02 06:21:32;;;;;;;14.75;8.70;;;;;;;12.71;100.00;92940.38;2516075;23;20010;-83
2023/06/02 06:22:37;;;;;;;18.55;9.95;;;;;;;12.76;100.00;92944.44;2528694;23;20173;-83
2023/06/02 06:23:42;;;;;;;17.50;9.15;;;;;;;12.75;100.00;92941.00;2540046;23;20016;-83
2023/06/02 06:24:46;;;;;;;15.40;9.23;;;;;;;12.76;100.00;92947.13;2551570;23;20012;-83
2023/06/02 06:25:47;;;;;;;21.83;9.98;;;;;;;12.87;100.00;92939.47;2538801;23;20385;-85
2023/06/02 06:26:48;;;;;;;17.50;9.73;;;;;;;13.05;100.00;92939.63;2526773;23;20412;-86
2023/06/02 06:27:49;;;;;;;21.60;9.63;;;;;;;13.09;100.00;92934.88;2515235;23;20022;-85
2023/06/02 06:28:50;;;;;;;16.88;9.82;;;;;;;13.09;100.00;92940.25;2515043;23;20009;-83
2023/06/02 06:29:51;;;;;;;19.92;9.35;;;;;;;13.03;100.00;92933.94;2539655;23;20009;-82
2023/06/02 06:30:53;;;;;;;19.08;9.45;;;;;;;13.08;100.00;92938.75;2526679;23;20368;-83
2023/06/02 06:32:00;;;;;;;15.13;8.73;;;;;;;13.19;100.00;92943.00;2539386;23;20028;-85
2023/06/02 06:33:06;;;;;;;19.15;9.95;;;;;;;13.35;100.00;92934.81;2517883;23;20466;-82
2023/06/02 06:34:08;;;;;;;18.17;9.52;;;;;;;13.37;100.00;92937.78;2529419;23;20882;-84
2023/06/02 06:35:09;;;;;;;18.33;9.57;;;;;;;13.31;100.00;92932.25;2519254;23;20042;-87
2023/06/02 06:36:11;;;;;;;20.52;9.90;;;;;;;13.24;100.00;92937.84;2531050;23;20433;-85
2023/06/02 06:37:12;;;;;;;17.55;9.00;;;;;;;13.31;100.00;92934.19;2530948;23;20045;-84
2023/06/02 06:38:13;;;;;;;17.33;8.80;;;;;;;13.39;100.00;92934.66;2531036;23;20002;-83
2023/06/02 06:39:14;;;;;;;24.83;9.55;;;;;;;13.40;100.00;92934.25;2517028;23;20556;-83
2023/06/02 06:40:15;;;;;;;20.50;9.68;;;;;;;13.40;100.00;92934.25;2514430;23;20070;-85
2023/06/02 06:41:18;;;;;;;24.73;10.25;;;;;;;13.44;100.00;92940.25;2514574;23;20010;-85
2023/06/02 06:42:21;;;;;;;19.95;8.88;;;;;;;13.49;100.00;92942.34;2527558;23;20097;-83
2023/06/02 06:43:26;;;;;;;17.45;9.55;;;;;;;13.48;100.00;92930.13;2539768;23;20345;-84